セントジョンズ の空港の天気 - METARとTAF

セント・ジョンズ国際空港 ( CYYT / YYT ) - カナダ ニューファンドランド・ラブラドール州セントジョンズ
飛行場実況気象(Metar)
観測時間09/30 03:30 NDT (09/30 06:00 UTC)
風向・風速西南西 5m/s 瞬間風速8m/s
視程10km以上
天気現象
全天の8割程度の雲 雲底高度 210m
気温18℃
湿度100%
気圧1024hPa
METARCYYT 300600Z 24010G15KT 15SM BKN007 18/18 A3023 RMK SF7 SLP240 DENSITY ALT 600FT
過去の天気等 Google飛行場航空写真 Wunderground天気予報

過去48時間のMETAR

飛行場予報(TAF)
発表時間: 9/30 03:11 NDT (9/30 05:41 UTC)
予報対象時間: 30日3時 NDT ~ 1日3時 NDT
風向・風速西南西 6m/s
視程6440m
天気現象もや
全天を覆う雲 雲底高度 120m
30日3時 NDT ~ 30日8時 NDT に一時的に
視程10km以上
天気現象運行に影響にある天気現象が終了
全天を覆う雲 雲底高度 240m
30日3時 NDT から 確率 30% で
視程1610m
天気現象もや
全天を覆う雲 雲底高度 90m
30日8時 NDT から
風向・風速西南西 6m/s 瞬間風速 11m/s
視程10km以上
全天の8割程度の雲 雲底高度 300m
30日8時 NDT ~ 30日18時 NDT に一時的に
全天の4割程度の雲 雲底高度 300m
30日10時 NDT ~ 30日12時 NDT に徐々に
風向・風速西南西 10m/s 瞬間風速 15m/s
30日19時 NDT から
風向・風速西南西 10m/s 瞬間風速 15m/s
視程10km以上
全天を覆う雲 雲底高度 210m
30日19時 NDT ~ 1日3時 NDT に一時的に
視程8050m
天気現象弱い霧雨 もや
1日1時 NDT ~ 1日3時 NDT に徐々に
風向・風速南西 11m/s 瞬間風速 16m/s
TAF CYYT 300541Z 3006/0106 25012KT 4SM BR OVC004
TEMPO 3006/3011 P6SM NSW OVC008
PROB30 3006/3011 1SM BR OVC003
FM301100 24012G22KT P6SM BKN010
TEMPO 3011/3021 SCT010
BECMG 3013/3015 24020G30KT
FM302200 24020G30KT P6SM OVC007
TEMPO 3022/0106 5SM -DZ BR
BECMG 0104/0106 22022G32KT RMK NXT FCST BY 301200Z